Time;durP1;ratioP1;P1;durP2;ratioP2;P2;SDS_P1;SDS_P2;PMS_P1;PMS_P2;Temp;Humidity;BMP_temperature;BMP_pressure;BME280_temperature;BME280_humidity;BME280_pressure;Samples;Min_cycle;Max_cycle;Signal;HPM_P1;HPM_P2
2022/11/03 00:00:12;;;;;;;2.00;1.30;;;;;;;12.98;77.45;99519.53;5112084;28;20221;-58
2022/11/03 00:02:38;;;;;;;2.53;1.23;;;;;;;12.96;77.56;99520.56;5112111;28;20297;-58
2022/11/03 00:07:46;;;;;;;1.80;1.20;;;;;;;12.79;78.06;99514.13;5112262;28;20689;-58
2022/11/03 00:10:15;;;;;;;1.87;1.20;;;;;;;12.80;78.33;99519.16;5111936;28;20217;-58
2022/11/03 00:12:41;;;;;;;1.40;1.20;;;;;;;12.90;78.07;99527.78;5112214;28;20673;-61
2022/11/03 00:15:09;;;;;;;1.43;1.30;;;;;;;12.94;78.16;99532.69;5112363;28;20225;-58
2022/11/03 00:17:36;;;;;;;1.37;1.27;;;;;;;12.93;77.79;99536.19;5111965;28;20193;-61
2022/11/03 00:20:03;;;;;;;4.13;0.80;;;;;;;12.81;78.21;99528.47;5112347;28;20708;-58
2022/11/03 00:22:32;;;;;;;1.17;1.07;;;;;;;12.80;78.81;99524.28;5112006;28;20226;-61
2022/11/03 00:24:59;;;;;;;1.43;1.03;;;;;;;12.78;78.54;99527.91;5112228;28;20209;-57
2022/11/03 00:27:27;;;;;;;1.40;0.90;;;;;;;12.77;78.59;99534.78;5111675;28;20704;-62
2022/11/03 00:29:54;;;;;;;1.63;1.30;;;;;;;12.67;79.34;99541.50;5111740;28;20247;-58
2022/11/03 00:32:21;;;;;;;1.60;1.37;;;;;;;12.56;79.73;99536.34;5111673;28;20201;-61
2022/11/03 00:34:47;;;;;;;1.80;1.57;;;;;;;12.73;79.24;99542.81;5111863;28;20217;-62
2022/11/03 00:37:14;;;;;;;2.03;1.40;;;;;;;12.71;79.57;99542.09;5111955;28;20194;-62
2022/11/03 00:39:41;;;;;;;1.10;1.00;;;;;;;12.79;78.69;99550.88;5111762;28;20255;-58
2022/11/03 00:42:08;;;;;;;1.57;1.10;;;;;;;12.76;78.95;99550.28;5111692;28;20196;-62
2022/11/03 00:44:36;;;;;;;3.67;1.37;;;;;;;12.58;79.48;99548.13;5111006;28;20244;-58
2022/11/03 00:47:03;;;;;;;3.13;1.57;;;;;;;12.65;79.47;99548.50;5111530;28;20201;-62
2022/11/03 00:49:29;;;;;;;2.70;1.30;;;;;;;12.63;79.62;99545.25;5111287;28;20221;-57
2022/11/03 00:51:56;;;;;;;1.10;1.00;;;;;;;12.61;79.15;99547.09;5111394;28;20212;-58
2022/11/03 00:54:23;;;;;;;3.33;1.93;;;;;;;12.62;79.30;99544.44;5111256;28;20224;-57
2022/11/03 00:56:49;;;;;;;2.00;1.33;;;;;;;12.65;78.82;99554.47;5111215;28;20207;-60
2022/11/03 00:59:16;;;;;;;1.93;1.33;;;;;;;12.72;78.56;99547.13;5111270;28;20217;-62
2022/11/03 01:01:45;;;;;;;1.57;1.47;;;;;;;12.77;78.10;99547.63;5111666;28;20230;-61
2022/11/03 01:06:59;;;;;;;1.50;1.27;;;;;;;12.65;78.49;99549.34;5111125;28;20249;-62
2022/11/03 01:09:27;;;;;;;4.80;1.27;;;;;;;12.71;77.92;99553.16;5110675;28;20217;-57
2022/11/03 01:11:58;;;;;;;3.37;1.57;;;;;;;12.66;77.95;99550.16;5110940;28;20200;-62
2022/11/03 01:14:27;;;;;;;1.90;1.33;;;;;;;12.60;78.14;99540.34;5110910;28;20743;-58
2022/11/03 01:16:55;;;;;;;1.03;1.03;;;;;;;12.55;78.83;99547.56;5110736;28;20761;-57
2022/11/03 01:19:22;;;;;;;3.23;1.37;;;;;;;12.40;79.68;99555.41;5110726;28;20225;-57
2022/11/03 01:21:49;;;;;;;3.37;1.23;;;;;;;12.24;80.47;99549.75;5110901;28;20632;-57
2022/11/03 01:24:16;;;;;;;1.80;1.60;;;;;;;12.23;81.07;99554.06;5110616;28;20225;-57
2022/11/03 01:26:43;;;;;;;1.50;1.20;;;;;;;12.09;81.61;99550.84;5110501;28;20189;-61
2022/11/03 01:29:09;;;;;;;1.13;1.03;;;;;;;12.14;81.70;99559.03;5110634;27;20216;-62
2022/11/03 01:31:36;;;;;;;2.03;1.67;;;;;;;12.22;81.68;99559.31;5110562;28;20196;-62
2022/11/03 01:34:04;;;;;;;1.60;1.00;;;;;;;12.23;81.56;99568.63;5110117;28;20793;-59
2022/11/03 01:36:31;;;;;;;3.13;1.63;;;;;;;12.34;80.98;99578.94;5110986;28;20614;-61
2022/11/03 01:38:58;;;;;;;1.90;1.37;;;;;;;12.49;80.22;99578.78;5110363;28;20220;-61
2022/11/03 01:41:27;;;;;;;3.43;1.30;;;;;;;12.44;80.04;99585.03;5110390;28;20202;-61
2022/11/03 01:44:32;;;;;;;2.47;1.60;;;;;;;12.44;80.07;99582.47;5110212;28;20228;-58
2022/11/03 01:47:09;;;;;;;1.27;1.07;;;;;;;12.49;79.88;99589.03;5089995;28;20200;-57
2022/11/03 01:49:43;;;;;;;2.03;1.20;;;;;;;12.52;79.54;99578.56;5110471;28;20227;-62
2022/11/03 01:52:13;;;;;;;2.20;1.37;;;;;;;12.53;79.35;99590.44;5110419;28;20201;-62
2022/11/03 01:54:44;;;;;;;1.70;1.47;;;;;;;12.44;79.72;99590.16;5110260;28;20224;-62
2022/11/03 01:57:17;;;;;;;0.97;0.77;;;;;;;12.47;79.42;99591.69;5110227;28;20205;-58
2022/11/03 01:59:44;;;;;;;0.80;0.80;;;;;;;12.46;79.47;99593.44;5110370;28;20648;-58
2022/11/03 02:02:11;;;;;;;2.87;1.70;;;;;;;12.54;79.19;99585.22;5110252;28;20705;-57
2022/11/03 02:04:41;;;;;;;1.87;1.40;;;;;;;12.52;78.97;99588.81;5109957;28;20242;-62
2022/11/03 02:07:17;;;;;;;1.77;1.27;;;;;;;12.37;79.22;99590.72;5110221;28;20205;-62
2022/11/03 02:09:44;;;;;;;1.77;1.63;;;;;;;12.28;79.43;99592.22;5110246;28;20228;-58
2022/11/03 02:12:11;;;;;;;1.27;0.73;;;;;;;12.20;79.81;99589.38;5109995;28;20680;-62
2022/11/03 02:14:43;;;;;;;1.17;0.90;;;;;;;12.26;80.02;99594.06;5110094;28;20232;-58
2022/11/03 02:17:13;;;;;;;2.27;1.53;;;;;;;12.14;80.04;99593.19;5109913;28;20227;-58
2022/11/03 02:19:45;;;;;;;1.90;1.70;;;;;;;12.12;80.79;99612.16;5109640;28;20224;-62
2022/11/03 02:22:30;;;;;;;2.00;1.07;;;;;;;11.96;81.62;99617.53;5109991;28;20748;-62
2022/11/03 02:25:03;;;;;;;0.43;0.43;;;;;;;11.76;82.39;99616.31;5109476;28;20229;-62
2022/11/03 02:27:31;;;;;;;2.23;2.03;;;;;;;11.77;82.75;99625.63;5109553;28;20276;-62
2022/11/03 02:29:58;;;;;;;4.27;2.97;;;;;;;11.65;82.97;99627.28;5109890;28;20728;-61
2022/11/03 02:32:30;;;;;;;3.23;2.63;;;;;;;11.22;84.60;99631.91;5109623;28;20284;-58
2022/11/03 02:35:05;;;;;;;1.87;1.73;;;;;;;10.97;86.32;99630.97;5109609;28;20217;-62
2022/11/03 02:37:35;;;;;;;2.60;2.37;;;;;;;11.05;86.10;99630.44;5109858;28;20193;-58
2022/11/03 02:40:06;;;;;;;4.57;3.23;;;;;;;10.95;86.71;99643.03;5109912;28;20213;-61
2022/11/03 02:42:37;;;;;;;4.90;3.40;;;;;;;10.87;86.74;99647.81;5109835;28;20205;-58
2022/11/03 02:45:08;;;;;;;3.53;3.17;;;;;;;10.57;88.30;99648.88;5111125;28;20237;-62
2022/11/03 02:47:37;;;;;;;4.67;2.30;;;;;;;10.41;89.44;99646.47;5113619;28;20684;-58
2022/11/03 02:50:09;;;;;;;5.10;1.60;;;;;;;10.52;89.76;99643.22;5113750;28;20213;-58
2022/11/03 02:52:38;;;;;;;3.00;1.60;;;;;;;10.48;89.74;99635.84;5113550;28;20212;-58
2022/11/03 02:55:12;;;;;;;3.67;2.50;;;;;;;10.54;89.85;99636.28;5113618;28;20255;-58
2022/11/03 02:57:46;;;;;;;5.60;2.93;;;;;;;10.72;89.29;99626.59;5113526;27;20224;-62
2022/11/03 03:00:16;;;;;;;1.67;1.07;;;;;;;10.78;88.98;99638.19;5113671;28;20209;-58
2022/11/03 03:02:52;;;;;;;0.90;0.90;;;;;;;10.86;88.36;99636.78;5113341;28;20677;-57
2022/11/03 03:05:24;;;;;;;2.40;1.90;;;;;;;10.97;87.61;99633.53;5113142;28;20316;-62
2022/11/03 03:07:57;;;;;;;2.33;1.83;;;;;;;11.06;87.09;99640.59;5113129;28;20201;-58
2022/11/03 03:10:26;;;;;;;1.37;1.27;;;;;;;11.14;86.72;99634.16;5112997;28;20600;-58
2022/11/03 03:12:57;;;;;;;2.77;2.00;;;;;;;11.22;86.26;99631.91;5112961;27;20422;-58
2022/11/03 03:15:31;;;;;;;3.97;2.37;;;;;;;11.35;85.78;99644.72;5113299;28;20213;-58
2022/11/03 03:18:05;;;;;;;2.97;2.63;;;;;;;11.40;85.02;99643.47;5113012;28;20619;-58
2022/11/03 03:20:39;;;;;;;2.87;2.27;;;;;;;11.40;84.85;99646.03;5113023;28;20217;-62
2022/11/03 03:23:13;;;;;;;2.07;1.80;;;;;;;11.49;84.33;99650.56;5112617;28;20677;-62
2022/11/03 03:25:43;;;;;;;1.40;1.30;;;;;;;11.56;83.71;99656.91;5112732;28;20694;-58
2022/11/03 03:28:16;;;;;;;2.57;1.80;;;;;;;11.56;83.38;99662.03;5112656;27;20615;-58
2022/11/03 03:30:46;;;;;;;3.20;1.50;;;;;;;11.57;82.92;99662.84;5112719;28;20274;-58
2022/11/03 03:33:15;;;;;;;2.10;1.47;;;;;;;11.56;82.61;99664.59;5112727;27;20273;-62
2022/11/03 03:35:48;;;;;;;1.63;1.33;;;;;;;11.65;81.86;99664.88;5112508;28;20213;-58
2022/11/03 03:38:19;;;;;;;1.87;1.67;;;;;;;11.63;82.04;99666.72;5112792;28;20681;-62
2022/11/03 03:40:51;;;;;;;1.90;1.13;;;;;;;11.64;82.11;99663.25;5112682;28;20221;-59
2022/11/03 03:43:22;;;;;;;2.40;1.77;;;;;;;11.58;82.50;99659.38;5112655;28;20227;-57
2022/11/03 03:45:52;;;;;;;1.40;1.30;;;;;;;11.56;82.36;99651.78;5112374;28;20251;-57
2022/11/03 03:48:19;;;;;;;1.20;1.13;;;;;;;11.52;82.33;99660.59;5112498;27;20197;-57
2022/11/03 03:50:49;;;;;;;1.43;1.33;;;;;;;11.52;82.61;99655.47;5112352;27;20217;-62
2022/11/03 03:53:18;;;;;;;1.60;1.50;;;;;;;11.51;82.86;99647.88;5112127;28;20201;-62
2022/11/03 03:55:48;;;;;;;2.67;1.80;;;;;;;11.53;82.61;99662.22;5111965;28;20278;-62
2022/11/03 03:58:15;;;;;;;1.57;1.00;;;;;;;11.51;82.73;99655.56;5112255;28;20197;-58
2022/11/03 04:00:44;;;;;;;1.77;1.67;;;;;;;11.45;82.85;99654.22;5112076;28;20709;-57
2022/11/03 04:03:15;;;;;;;2.33;1.30;;;;;;;11.52;83.12;99645.25;5111820;28;20196;-62
2022/11/03 04:05:42;;;;;;;2.13;1.27;;;;;;;11.53;82.95;99652.00;5112024;28;20351;-58
2022/11/03 04:08:10;;;;;;;2.20;1.40;;;;;;;11.47;82.93;99647.28;5111793;28;20201;-62
2022/11/03 04:10:37;;;;;;;2.17;1.90;;;;;;;11.46;82.78;99643.09;5111911;28;20217;-58
2022/11/03 04:24:02;;;;;;;2.80;1.73;;;;;;;11.28;84.07;99641.72;5111828;28;20668;-58
2022/11/03 04:26:29;;;;;;;1.03;0.93;;;;;;;11.31;84.24;99644.09;5111458;28;20197;-62
2022/11/03 04:28:57;;;;;;;1.53;1.43;;;;;;;11.26;84.21;99635.91;5111409;28;20202;-58
2022/11/03 04:31:27;;;;;;;1.93;1.20;;;;;;;11.10;85.31;99638.66;5111696;28;20697;-58
2022/11/03 04:33:54;;;;;;;0.97;0.97;;;;;;;11.01;85.70;99647.75;5111561;28;20280;-57
2022/11/03 04:36:22;;;;;;;13.53;1.67;;;;;;;10.98;85.77;99653.06;5111402;28;20680;-62
2022/11/03 04:38:50;;;;;;;1.93;1.50;;;;;;;10.95;85.97;99660.13;5111257;28;20293;-58
2022/11/03 04:41:19;;;;;;;3.33;2.17;;;;;;;10.90;85.82;99657.84;5111559;28;20205;-62
2022/11/03 04:43:46;;;;;;;2.33;0.93;;;;;;;10.91;86.19;99656.94;5111033;28;20236;-62
2022/11/03 04:46:16;;;;;;;2.67;1.27;;;;;;;10.92;85.84;99668.00;5111328;27;20661;-58
2022/11/03 04:48:46;;;;;;;0.77;0.70;;;;;;;10.90;86.10;99674.94;5111045;28;20201;-57
2022/11/03 04:51:16;;;;;;;2.10;1.90;;;;;;;10.85;86.12;99672.69;5111272;28;20201;-62
2022/11/03 04:53:48;;;;;;;2.93;1.87;;;;;;;10.88;86.27;99672.50;5110885;28;20661;-57
2022/11/03 04:56:18;;;;;;;2.80;1.90;;;;;;;10.89;86.32;99679.25;5111153;28;20220;-58
2022/11/03 04:58:47;;;;;;;2.60;1.87;;;;;;;10.86;86.15;99676.88;5110927;28;20723;-61
2022/11/03 05:01:15;;;;;;;3.13;1.93;;;;;;;10.84;86.22;99681.28;5111013;28;20679;-57
2022/11/03 05:03:44;;;;;;;1.67;1.43;;;;;;;10.87;86.37;99686.19;5110462;28;20200;-62
2022/11/03 05:06:15;;;;;;;1.27;1.17;;;;;;;10.90;86.04;99686.00;5110834;28;20201;-62
2022/11/03 05:08:45;;;;;;;1.97;1.87;;;;;;;10.91;86.28;99682.53;5109992;28;20234;-58
2022/11/03 05:11:18;;;;;;;1.73;1.50;;;;;;;10.92;86.26;99681.59;5111236;28;20205;-62
2022/11/03 05:13:45;;;;;;;2.90;1.57;;;;;;;10.95;86.03;99681.41;5110502;28;20274;-62
2022/11/03 05:16:12;;;;;;;1.30;1.20;;;;;;;10.97;86.38;99674.47;5110659;28;20201;-58
2022/11/03 05:18:42;;;;;;;1.57;1.47;;;;;;;10.91;86.20;99687.66;5110422;28;20197;-62
2022/11/03 05:21:12;;;;;;;2.40;1.63;;;;;;;10.93;86.49;99693.47;5110619;28;20673;-58
2022/11/03 05:23:44;;;;;;;2.90;1.57;;;;;;;11.04;86.50;99701.28;5110261;28;20197;-58
2022/11/03 05:26:16;;;;;;;2.37;1.63;;;;;;;11.09;86.44;99704.38;5110600;28;20201;-62
2022/11/03 05:28:46;;;;;;;1.30;1.20;;;;;;;11.16;86.23;99704.78;5110567;28;20614;-57
2022/11/03 05:31:22;;;;;;;1.47;1.37;;;;;;;11.23;86.11;99706.03;5111033;28;20600;-62
2022/11/03 05:33:52;;;;;;;1.77;1.60;;;;;;;11.29;85.99;99710.75;5110291;28;20212;-62
2022/11/03 05:36:22;;;;;;;2.70;2.13;;;;;;;11.37;85.64;99714.56;5110630;28;20665;-58
2022/11/03 05:38:53;;;;;;;2.70;1.60;;;;;;;11.39;85.75;99716.09;5110220;28;20230;-58
2022/11/03 05:41:23;;;;;;;2.03;1.83;;;;;;;11.47;85.29;99718.97;5110527;28;20206;-61
2022/11/03 05:43:56;;;;;;;2.60;1.63;;;;;;;11.39;86.02;99721.22;5110043;28;20284;-62
2022/11/03 05:46:24;;;;;;;2.87;1.30;;;;;;;11.49;85.10;99731.66;5110220;28;20236;-63
2022/11/03 05:48:51;;;;;;;2.47;2.17;;;;;;;11.56;84.74;99741.41;5109968;28;20193;-57
2022/11/03 05:51:22;;;;;;;4.03;1.27;;;;;;;11.56;84.05;99741.41;5110122;28;20201;-62
2022/11/03 05:53:53;;;;;;;1.40;1.27;;;;;;;11.61;83.48;99751.38;5109952;28;20208;-61
2022/11/03 05:56:23;;;;;;;1.40;1.30;;;;;;;11.65;83.34;99746.84;5110098;28;20204;-62
2022/11/03 05:58:52;;;;;;;1.03;1.00;;;;;;;11.62;83.27;99753.00;5110038;28;20201;-62
2022/11/03 06:01:24;;;;;;;4.47;2.70;;;;;;;11.68;82.96;99746.66;5110070;28;20200;-62
2022/11/03 06:03:51;;;;;;;8.90;5.43;;;;;;;11.66;83.08;99748.47;5109786;28;20200;-62
2022/11/03 06:06:22;;;;;;;8.90;4.70;;;;;;;11.68;82.66;99751.78;5110213;28;20201;-62
2022/11/03 06:08:49;;;;;;;9.60;5.07;;;;;;;11.70;82.81;99753.31;5109745;28;20197;-62
2022/11/03 06:11:24;;;;;;;5.63;3.67;;;;;;;11.71;82.64;99769.50;5110185;28;20233;-62
2022/11/03 06:13:51;;;;;;;8.27;6.50;;;;;;;11.79;82.51;99760.38;5109597;28;20200;-58
2022/11/03 06:16:36;;;;;;;17.63;11.27;;;;;;;11.87;82.06;99761.63;5109939;28;20201;-58
2022/11/03 06:19:18;;;;;;;12.63;4.90;;;;;;;11.93;82.15;99764.63;5111660;28;20697;-62
2022/11/03 06:21:46;;;;;;;7.97;4.30;;;;;;;11.97;82.14;99773.75;5114043;28;20250;-58
2022/11/03 06:24:15;;;;;;;13.67;6.70;;;;;;;12.06;82.17;99768.94;5113905;28;20224;-59
2022/11/03 06:26:45;;;;;;;7.40;4.63;;;;;;;12.24;82.11;99778.72;5113904;28;20205;-58
2022/11/03 06:29:15;;;;;;;8.40;4.10;;;;;;;12.40;81.19;99778.53;5113991;28;20749;-62
2022/11/03 06:31:44;;;;;;;3.63;2.17;;;;;;;12.72;80.65;99780.59;5114061;28;20891;-62
2022/11/03 06:34:30;;;;;;;16.47;10.60;;;;;;;12.95;79.83;99785.88;5113686;28;20225;-62
2022/11/03 06:36:59;;;;;;;6.63;5.17;;;;;;;13.22;79.11;99783.88;5114116;28;20723;-58
2022/11/03 06:39:26;;;;;;;17.57;9.77;;;;;;;13.52;78.99;99785.19;5113995;28;20216;-62
2022/11/03 06:41:54;;;;;;;14.27;8.50;;;;;;;13.87;77.76;99789.47;5113728;27;20201;-58
2022/11/03 06:44:25;;;;;;;6.43;3.13;;;;;;;14.34;76.39;99793.63;5113605;28;20655;-59
2022/11/03 06:46:54;;;;;;;4.27;3.20;;;;;;;14.78;72.56;99786.00;5113632;28;21034;-58
2022/11/03 06:49:29;;;;;;;5.23;3.13;;;;;;;15.05;72.43;99788.94;5113266;28;20228;-62
2022/11/03 06:51:56;;;;;;;13.37;6.70;;;;;;;15.37;71.13;99788.13;5113573;28;20203;-59
2022/11/03 06:54:23;;;;;;;7.27;3.73;;;;;;;15.66;70.10;99790.09;5113370;28;20323;-62
2022/11/03 06:56:50;;;;;;;5.03;3.30;;;;;;;15.89;69.58;99794.19;5113397;27;20204;-62
2022/11/03 06:59:19;;;;;;;6.20;3.30;;;;;;;16.04;67.74;99790.31;5113405;28;20220;-58
2022/11/03 07:01:51;;;;;;;5.30;3.53;;;;;;;16.13;66.88;99796.47;5113317;28;20204;-62
2022/11/03 07:04:21;;;;;;;4.40;3.13;;;;;;;16.26;66.92;99802.25;5113151;28;20240;-58
2022/11/03 07:06:48;;;;;;;8.60;3.57;;;;;;;16.43;66.15;99797.41;5113324;28;20201;-62
2022/11/03 07:09:19;;;;;;;5.93;3.53;;;;;;;16.66;64.55;99803.19;5113573;28;20217;-61
2022/11/03 07:11:48;;;;;;;13.20;6.90;;;;;;;16.94;64.51;99802.44;5113502;27;20194;-59
2022/11/03 07:14:19;;;;;;;7.47;3.67;;;;;;;17.15;62.28;99809.25;5113526;28;20244;-62
2022/11/03 07:16:48;;;;;;;10.00;3.07;;;;;;;17.35;60.73;99815.25;5113495;28;20643;-58
2022/11/03 07:19:22;;;;;;;2.93;2.57;;;;;;;17.45;61.99;99815.25;5112968;28;20228;-62
2022/11/03 07:21:50;;;;;;;16.50;6.00;;;;;;;17.81;60.90;99806.81;5113487;28;20728;-58
2022/11/03 07:24:21;;;;;;;20.23;8.47;;;;;;;18.17;59.83;99822.47;5112890;28;20251;-58
2022/11/03 07:26:49;;;;;;;8.90;4.27;;;;;;;18.26;58.22;99811.28;5113282;27;20274;-59
2022/11/03 07:29:21;;;;;;;11.43;5.03;;;;;;;18.55;58.60;99812.91;5113083;28;20213;-63
2022/11/03 07:31:50;;;;;;;31.13;12.00;;;;;;;18.75;56.48;99813.66;5112288;28;20297;-63
2022/11/03 07:34:22;;;;;;;9.00;5.33;;;;;;;19.02;56.24;99807.63;5112861;28;20227;-62
2022/11/03 07:36:50;;;;;;;4.80;3.23;;;;;;;18.58;57.46;99809.22;5112839;28;20202;-58
2022/11/03 07:39:20;;;;;;;6.93;3.80;;;;;;;18.28;57.45;99804.19;5112810;28;20225;-62
2022/11/03 07:41:47;;;;;;;6.50;3.97;;;;;;;18.72;56.07;99812.16;5112805;28;20289;-58
2022/11/03 07:44:20;;;;;;;7.30;3.87;;;;;;;18.87;55.47;99809.09;5112886;27;20584;-58
2022/11/03 07:46:49;;;;;;;13.50;6.43;;;;;;;19.06;55.52;99808.97;5112514;28;20291;-58
2022/11/03 07:49:24;;;;;;;15.27;6.90;;;;;;;19.25;54.07;99812.38;5112794;28;20645;-58
2022/11/03 07:51:53;;;;;;;20.10;9.13;;;;;;;19.58;53.62;99811.69;5112778;28;20718;-64
2022/11/03 07:54:22;;;;;;;8.73;5.07;;;;;;;19.67;53.89;99808.19;5112363;28;20307;-63
2022/11/03 07:56:52;;;;;;;9.07;4.73;;;;;;;19.32;53.64;99803.84;5112519;28;20281;-63
2022/11/03 07:59:23;;;;;;;8.77;5.30;;;;;;;18.41;55.68;99795.28;5112352;28;20311;-58
2022/11/03 08:01:51;;;;;;;12.97;5.93;;;;;;;18.81;55.74;99787.16;5112306;28;20203;-62
2022/11/03 08:04:21;;;;;;;7.43;4.53;;;;;;;19.26;55.38;99788.06;5112042;28;20231;-62
2022/11/03 08:06:48;;;;;;;5.53;3.93;;;;;;;19.42;53.28;99783.81;5112694;28;20204;-58
2022/11/03 08:09:15;;;;;;;6.37;3.90;;;;;;;19.41;53.32;99776.22;5112499;28;20629;-63
2022/11/03 08:11:42;;;;;;;7.57;4.50;;;;;;;18.97;53.86;99782.16;5112405;28;20210;-63
2022/11/03 08:14:09;;;;;;;5.43;3.57;;;;;;;19.31;54.55;99780.66;5112051;28;20226;-63
2022/11/03 08:16:38;;;;;;;8.83;3.53;;;;;;;19.14;54.10;99780.53;5112263;28;20295;-58
2022/11/03 08:19:05;;;;;;;12.17;4.00;;;;;;;19.05;54.32;99786.59;5111984;28;20725;-63
2022/11/03 08:21:31;;;;;;;4.33;2.40;;;;;;;19.58;53.63;99779.75;5112063;28;20204;-58
2022/11/03 08:23:58;;;;;;;4.83;3.00;;;;;;;19.95;51.96;99784.69;5111696;28;20220;-63
2022/11/03 08:26:25;;;;;;;4.87;2.87;;;;;;;20.28;51.99;99779.66;5111979;28;20232;-63
2022/11/03 08:28:52;;;;;;;4.87;2.80;;;;;;;19.98;51.88;99784.38;5111733;28;20228;-63
2022/11/03 08:31:19;;;;;;;4.40;2.93;;;;;;;20.06;50.42;99779.22;5111908;28;20202;-59
2022/11/03 08:33:47;;;;;;;5.33;2.90;;;;;;;18.42;54.93;99771.84;5111599;28;20664;-58
2022/11/03 08:36:14;;;;;;;5.10;3.07;;;;;;;18.79;54.50;99776.13;5111749;28;20205;-63
2022/11/03 08:38:41;;;;;;;4.80;2.43;;;;;;;19.03;53.93;99782.53;5111504;28;20567;-63
2022/11/03 08:41:08;;;;;;;5.30;2.63;;;;;;;19.32;54.74;99782.31;5111525;28;20201;-63
2022/11/03 08:43:35;;;;;;;4.77;2.50;;;;;;;19.73;52.74;99782.63;5111463;28;20273;-63
2022/11/03 08:46:01;;;;;;;5.63;2.77;;;;;;;20.39;51.63;99783.75;5111495;28;20540;-63
2022/11/03 08:48:28;;;;;;;6.70;4.73;;;;;;;20.38;50.01;99782.94;5111330;28;20690;-58
2022/11/03 08:50:56;;;;;;;4.97;2.60;;;;;;;20.61;50.37;99783.19;5111266;28;20237;-64
2022/11/03 08:53:25;;;;;;;4.77;2.77;;;;;;;20.11;50.54;99784.78;5111278;28;20571;-58
2022/11/03 08:55:52;;;;;;;5.20;3.23;;;;;;;20.31;49.81;99784.53;5111065;28;20249;-58
2022/11/03 08:58:20;;;;;;;6.60;2.77;;;;;;;20.26;51.04;99791.97;5111264;27;20202;-64
2022/11/03 09:00:46;;;;;;;5.63;2.70;;;;;;;20.56;50.88;99788.84;5111145;28;20225;-63
2022/11/03 09:03:13;;;;;;;4.10;2.83;;;;;;;20.20;50.58;99798.59;5111238;28;20205;-58
2022/11/03 09:05:40;;;;;;;4.53;2.83;;;;;;;20.31;49.46;99789.72;5111151;28;20248;-59
2022/11/03 09:08:08;;;;;;;4.50;3.13;;;;;;;20.58;50.43;99797.31;5111000;27;20202;-59
2022/11/03 09:10:35;;;;;;;3.63;2.37;;;;;;;20.80;48.82;99789.91;5110858;28;20222;-63
2022/11/03 09:13:02;;;;;;;11.00;2.80;;;;;;;20.90;48.90;99794.97;5111290;27;20573;-58
2022/11/03 09:15:29;;;;;;;5.57;2.83;;;;;;;20.84;49.34;99786.00;5110768;27;20897;-59
2022/11/03 09:17:56;;;;;;;3.93;3.00;;;;;;;20.82;49.58;99787.13;5110772;28;20282;-58
2022/11/03 09:20:23;;;;;;;4.17;2.87;;;;;;;20.99;48.66;99787.00;5110919;28;20577;-64
2022/11/03 09:22:50;;;;;;;7.80;3.33;;;;;;;21.53;47.65;99785.75;5110635;28;20203;-58
2022/11/03 09:25:19;;;;;;;7.30;3.17;;;;;;;21.20;46.81;99780.50;5110943;28;20232;-64
2022/11/03 09:27:45;;;;;;;5.57;2.83;;;;;;;20.08;49.73;99772.09;5110560;28;20261;-64
2022/11/03 09:30:13;;;;;;;6.03;2.63;;;;;;;20.30;49.76;99777.69;5110370;28;20224;-59
2022/11/03 09:32:40;;;;;;;3.63;2.43;;;;;;;20.26;50.39;99768.59;5110557;28;20294;-59
2022/11/03 09:35:07;;;;;;;5.10;3.10;;;;;;;20.53;49.93;99763.19;5110390;28;20223;-58
2022/11/03 09:37:34;;;;;;;3.03;2.43;;;;;;;21.02;48.76;99771.06;5110583;28;20303;-64
2022/11/03 09:40:02;;;;;;;4.20;3.20;;;;;;;21.22;47.39;99762.97;5110566;28;20216;-60
2022/11/03 09:42:33;;;;;;;5.10;2.80;;;;;;;21.56;47.17;99765.41;5110713;28;20221;-64
2022/11/03 09:45:00;;;;;;;5.13;2.90;;;;;;;20.77;48.12;99756.44;5110433;28;20211;-64
2022/11/03 09:47:32;;;;;;;4.60;3.13;;;;;;;21.46;48.69;99755.16;5110487;28;20195;-61
2022/11/03 09:49:59;;;;;;;5.60;3.33;;;;;;;21.41;46.47;99747.06;5110293;28;20212;-64
2022/11/03 09:52:26;;;;;;;5.00;2.90;;;;;;;21.52;47.29;99747.69;5110352;28;20684;-59
2022/11/03 09:54:55;;;;;;;7.17;3.40;;;;;;;21.61;45.79;99757.09;5109907;28;20716;-64
2022/11/03 09:57:22;;;;;;;5.67;3.20;;;;;;;21.39;47.08;99748.19;5110515;28;20209;-59
2022/11/03 09:59:51;;;;;;;5.70;3.20;;;;;;;21.18;46.54;99753.88;5110212;28;20749;-64
2022/11/03 10:02:25;;;;;;;3.60;2.20;;;;;;;22.07;46.34;99741.66;5110203;28;20197;-59
2022/11/03 10:04:53;;;;;;;6.33;2.73;;;;;;;21.89;45.99;99742.72;5109825;28;20237;-64
2022/11/03 10:07:21;;;;;;;6.80;3.70;;;;;;;22.81;44.34;99734.31;5110084;28;20199;-64
2022/11/03 10:09:51;;;;;;;3.50;2.47;;;;;;;23.24;43.57;99738.06;5110222;28;20219;-64
2022/11/03 10:12:18;;;;;;;4.30;2.73;;;;;;;21.93;44.62;99732.75;5110389;28;20629;-64
2022/11/03 10:14:46;;;;;;;3.80;2.57;;;;;;;21.77;46.07;99730.22;5110151;28;20214;-64
2022/11/03 10:17:18;;;;;;;3.10;2.23;;;;;;;21.73;44.87;99728.94;5110135;28;20211;-64
2022/11/03 10:19:49;;;;;;;3.17;2.27;;;;;;;21.73;45.66;99729.75;5110012;28;20229;-64
2022/11/03 10:22:16;;;;;;;5.37;2.87;;;;;;;22.06;46.58;99719.22;5110148;28;20206;-58
2022/11/03 10:24:43;;;;;;;5.23;2.53;;;;;;;22.41;45.28;99717.13;5109754;28;20296;-58
2022/11/03 10:27:21;;;;;;;3.93;2.67;;;;;;;22.97;44.46;99715.13;5109994;28;20305;-58
2022/11/03 10:30:07;;;;;;;3.27;2.07;;;;;;;23.17;43.16;99718.88;5109788;28;20780;-61
2022/11/03 10:32:36;;;;;;;3.55;2.58;;;;;;;23.34;42.67;99713.50;5109768;28;20200;-58
2022/11/03 10:35:34;;;;;;;3.25;2.22;;;;;;;23.62;43.16;99706.69;5109966;28;20221;-62
2022/11/03 10:38:24;;;;;;;3.95;2.55;;;;;;;23.82;42.43;99701.72;5109959;28;21018;-59
2022/11/03 10:40:51;;;;;;;3.65;2.45;;;;;;;23.85;41.67;99698.78;5109872;28;20226;-63
2022/11/03 10:43:17;;;;;;;3.53;2.58;;;;;;;24.03;41.69;99697.56;5109757;28;20190;-63
2022/11/03 10:45:44;;;;;;;3.22;2.42;;;;;;;24.20;41.26;99695.53;5109318;28;20237;-63
2022/11/03 10:48:11;;;;;;;4.15;2.47;;;;;;;24.42;40.68;99697.19;5109215;28;20758;-59
2022/11/03 10:50:40;;;;;;;3.33;2.28;;;;;;;24.46;40.16;99692.44;5109659;28;20700;-59
2022/11/03 10:53:17;;;;;;;4.22;2.33;;;;;;;24.80;40.39;99696.97;5109775;28;21021;-63
2022/11/03 10:55:44;;;;;;;4.90;2.78;;;;;;;24.87;39.72;99700.47;5109484;28;20252;-59
2022/11/03 10:58:11;;;;;;;3.25;2.28;;;;;;;24.96;40.64;99694.13;5109347;28;20194;-63
2022/11/03 11:00:39;;;;;;;4.00;2.92;;;;;;;24.87;39.19;99684.78;5109229;28;20748;-60
2022/11/03 11:03:07;;;;;;;5.18;2.65;;;;;;;24.40;39.83;99675.66;5109611;28;20563;-62
2022/11/03 11:05:33;;;;;;;4.40;2.70;;;;;;;22.25;43.45;99674.56;5110095;28;20339;-63
2022/11/03 11:08:02;;;;;;;4.90;2.70;;;;;;;21.56;45.83;99676.13;5113532;28;20216;-59
2022/11/03 11:10:31;;;;;;;4.53;2.90;;;;;;;22.44;44.26;99670.69;5113276;28;20575;-59
2022/11/03 11:13:03;;;;;;;4.07;2.73;;;;;;;22.56;43.85;99663.28;5113412;28;20291;-59
2022/11/03 11:15:39;;;;;;;4.17;2.63;;;;;;;22.80;44.80;99664.88;5113183;28;20734;-59
2022/11/03 11:18:06;;;;;;;4.40;2.80;;;;;;;23.41;42.21;99659.59;5113118;28;20200;-63
2022/11/03 11:20:37;;;;;;;3.22;2.47;;;;;;;23.67;41.51;99656.53;5112962;28;20225;-63
2022/11/03 11:23:43;;;;;;;3.85;2.83;;;;;;;23.84;42.29;99660.59;5113383;28;20198;-63
2022/11/03 11:26:17;;;;;;;4.15;2.45;;;;;;;23.76;41.63;99652.03;5103926;28;20260;-59
2022/11/03 11:28:46;;;;;;;3.40;2.30;;;;;;;23.47;42.66;99651.88;5112961;28;20201;-59
2022/11/03 11:31:31;;;;;;;4.07;2.80;;;;;;;22.89;43.30;99649.97;5113017;28;20201;-59
2022/11/03 11:34:35;;;;;;;4.70;3.03;;;;;;;22.48;43.36;99642.47;5112753;28;20220;-59
2022/11/03 11:37:34;;;;;;;4.27;2.77;;;;;;;21.81;44.60;99641.22;5112931;28;20201;-59
2022/11/03 11:40:01;;;;;;;8.07;3.67;;;;;;;22.32;44.61;99636.41;5113167;28;20257;-63
2022/11/03 11:42:29;;;;;;;4.00;2.13;;;;;;;22.59;44.37;99636.84;5112882;28;20270;-63
2022/11/03 11:45:01;;;;;;;3.73;2.47;;;;;;;22.39;43.34;99631.31;5112631;28;20225;-59
2022/11/03 11:47:43;;;;;;;6.07;2.77;;;;;;;22.68;43.31;99629.78;5112758;28;20229;-58
2022/11/03 11:50:30;;;;;;;6.68;2.85;;;;;;;23.27;43.05;99630.72;5112393;28;20661;-58
2022/11/03 11:52:59;;;;;;;2.77;2.37;;;;;;;22.68;43.52;99625.38;5112263;27;20236;-59
2022/11/03 11:55:31;;;;;;;5.67;2.57;;;;;;;22.78;43.05;99620.75;5112525;28;20410;-58
2022/11/03 11:58:01;;;;;;;6.23;2.60;;;;;;;22.94;43.49;99616.34;5112580;28;20285;-59
2022/11/03 12:00:31;;;;;;;4.73;2.47;;;;;;;23.18;42.78;99616.13;5112564;28;20225;-59